createdAt,value
2017-10-20T00:01:07.518Z,89.47
2017-10-20T00:03:35.004Z,82.90
2017-10-20T00:06:02.456Z,83.50
2017-10-20T00:08:29.902Z,90.47
2017-10-20T00:10:57.373Z,83.87
2017-10-20T00:13:24.825Z,82.73
2017-10-20T00:15:52.298Z,89.97
2017-10-20T00:18:19.761Z,82.77
2017-10-20T00:20:47.205Z,76.20
2017-10-20T00:23:14.682Z,80.27
2017-10-20T00:25:42.130Z,82.50
2017-10-20T00:28:09.592Z,83.50
2017-10-20T00:30:37.067Z,80.47
2017-10-20T00:33:04.515Z,83.43
2017-10-20T00:35:32.081Z,82.53
2017-10-20T00:38:00.578Z,75.20
2017-10-20T00:40:28.951Z,79.37
2017-10-20T00:42:56.651Z,80.63
2017-10-20T00:45:24.326Z,73.33
2017-10-20T00:47:51.987Z,74.33
2017-10-20T00:50:19.550Z,75.77
2017-10-20T00:52:47.159Z,84.73
2017-10-20T00:55:15.491Z,77.83
2017-10-20T00:57:43.092Z,75.27
2017-10-20T01:00:11.588Z,83.47
2017-10-20T01:02:39.967Z,70.27
2017-10-20T01:05:08.843Z,78.77
2017-10-20T01:07:37.317Z,66.57
2017-10-20T01:10:04.761Z,63.03
2017-10-20T01:12:32.234Z,69.13
2017-10-20T01:14:59.718Z,71.07
2017-10-20T01:17:27.938Z,79.03
2017-10-20T01:19:55.385Z,70.90
2017-10-20T01:22:22.848Z,65.83
2017-10-20T01:24:50.296Z,66.37
2017-10-20T01:27:17.760Z,68.73
2017-10-20T01:29:45.219Z,67.47
2017-10-20T01:32:12.680Z,64.97
2017-10-20T01:34:40.140Z,66.83
2017-10-20T01:37:07.608Z,68.50
2017-10-20T01:39:35.079Z,69.90
2017-10-20T01:42:02.530Z,72.07
2017-10-20T01:44:30.012Z,70.53
2017-10-20T01:46:58.226Z,65.60
2017-10-20T01:49:25.663Z,65.37
2017-10-20T01:51:53.143Z,72.77
2017-10-20T01:54:20.605Z,64.97
2017-10-20T01:56:48.053Z,65.90
2017-10-20T01:59:15.515Z,63.93
2017-10-20T02:01:42.977Z,61.53
2017-10-20T02:04:10.432Z,52.20
2017-10-20T02:06:37.891Z,68.50
2017-10-20T02:09:05.548Z,59.80
2017-10-20T02:11:32.996Z,62.63
2017-10-20T02:14:01.216Z,67.13
2017-10-20T02:16:28.694Z,62.80
2017-10-20T02:18:56.165Z,57.90
2017-10-20T02:21:24.376Z,59.93
2017-10-20T02:23:51.825Z,66.90
2017-10-20T02:26:19.297Z,60.30
2017-10-20T02:28:46.762Z,62.97
2017-10-20T02:31:14.245Z,65.37
2017-10-20T02:33:41.680Z,60.67
2017-10-20T02:36:09.117Z,67.00
2017-10-20T02:38:36.589Z,57.90
2017-10-20T02:41:04.343Z,62.30
2017-10-20T02:43:31.784Z,54.57
2017-10-20T02:45:59.267Z,52.37
2017-10-20T02:48:26.712Z,57.83
2017-10-20T02:50:54.158Z,52.77
2017-10-20T02:53:21.621Z,56.63
2017-10-20T02:55:49.073Z,59.23
2017-10-20T02:58:16.543Z,55.90
2017-10-20T03:00:43.987Z,56.07
2017-10-20T03:03:11.449Z,56.20
2017-10-20T03:05:38.917Z,56.03
2017-10-20T03:08:06.401Z,56.63
2017-10-20T03:10:33.836Z,61.00
2017-10-20T03:13:01.290Z,54.10
2017-10-20T03:15:28.760Z,59.93
2017-10-20T03:17:56.210Z,57.30
2017-10-20T03:20:23.672Z,48.77
2017-10-20T03:22:51.116Z,56.13
2017-10-20T03:25:18.594Z,48.23
2017-10-20T03:27:46.340Z,50.73
2017-10-20T03:30:13.790Z,52.83
2017-10-20T03:32:41.261Z,53.63
2017-10-20T03:35:08.714Z,53.97
2017-10-20T03:37:36.152Z,50.00
2017-10-20T03:40:03.613Z,57.10
2017-10-20T03:42:31.057Z,57.00
2017-10-20T03:44:59.300Z,49.93
2017-10-20T03:47:26.744Z,47.33
2017-10-20T03:49:54.192Z,48.57
2017-10-20T03:52:21.687Z,51.57
2017-10-20T03:54:49.160Z,45.67
2017-10-20T03:57:17.376Z,50.07
2017-10-20T03:59:44.833Z,48.87
2017-10-20T04:02:12.289Z,47.57
2017-10-20T04:04:39.748Z,46.60
2017-10-20T04:07:07.216Z,58.77
2017-10-20T04:09:34.660Z,52.20
2017-10-20T04:12:02.116Z,57.87
2017-10-20T04:14:29.678Z,53.30
2017-10-20T04:16:57.144Z,47.03
2017-10-20T04:19:24.694Z,57.03
2017-10-20T04:21:52.148Z,56.43
2017-10-20T04:24:19.610Z,51.87
2017-10-20T04:26:47.820Z,47.60
2017-10-20T04:29:15.284Z,53.03
2017-10-20T04:31:42.745Z,43.93
2017-10-20T04:34:10.200Z,45.40
2017-10-20T04:36:37.644Z,51.33
2017-10-20T04:39:05.386Z,51.30
2017-10-20T04:41:32.828Z,46.50
2017-10-20T04:44:00.317Z,48.30
2017-10-20T04:46:27.758Z,48.27
2017-10-20T04:48:55.217Z,46.73
2017-10-20T04:51:22.677Z,48.13
2017-10-20T04:53:50.120Z,43.33
2017-10-20T04:56:17.572Z,50.30
2017-10-20T04:58:45.044Z,43.53
2017-10-20T05:01:12.492Z,45.00
2017-10-20T05:03:39.943Z,47.23
2017-10-20T05:06:07.581Z,44.50
2017-10-20T05:08:35.793Z,42.60
2017-10-20T05:11:03.345Z,52.97
2017-10-20T05:13:30.808Z,45.90
2017-10-20T05:15:58.285Z,44.80
2017-10-20T05:18:25.737Z,47.80
2017-10-20T05:20:53.196Z,49.73
2017-10-20T05:23:20.732Z,48.20
2017-10-20T05:25:48.174Z,48.90
2017-10-20T05:28:15.626Z,45.13
2017-10-20T05:30:43.853Z,45.90
2017-10-20T05:33:11.383Z,41.10
2017-10-20T05:35:38.841Z,48.27
2017-10-20T05:38:06.279Z,46.63
2017-10-20T05:40:33.740Z,49.10
2017-10-20T05:43:01.189Z,47.10
2017-10-20T05:45:29.417Z,42.73
2017-10-20T05:47:56.856Z,44.80
2017-10-20T05:50:24.324Z,46.53
2017-10-20T05:52:51.863Z,43.20
2017-10-20T05:55:19.322Z,50.63
2017-10-20T05:57:46.881Z,46.47
2017-10-20T06:00:14.317Z,42.53
2017-10-20T06:02:41.779Z,40.27
2017-10-20T06:05:09.253Z,42.80
2017-10-20T06:07:37.510Z,40.57
2017-10-20T06:10:04.954Z,44.27
2017-10-20T06:12:33.180Z,44.23
2017-10-20T06:15:00.644Z,39.97
2017-10-20T06:17:40.876Z,39.73
2017-10-20T06:20:08.336Z,40.20
2017-10-20T06:22:35.780Z,45.87
2017-10-20T06:25:03.249Z,43.17
2017-10-20T06:27:30.717Z,44.30
2017-10-20T06:29:58.174Z,46.30
2017-10-20T06:32:25.728Z,41.23
2017-10-20T06:34:53.287Z,40.20
2017-10-20T06:37:20.756Z,42.23
2017-10-20T06:39:48.204Z,41.00
2017-10-20T06:42:15.652Z,43.40
2017-10-20T06:44:43.100Z,45.70
2017-10-20T06:47:10.549Z,44.83
2017-10-20T06:49:38.812Z,40.90
2017-10-20T06:52:07.077Z,41.17
2017-10-20T06:54:34.530Z,36.50
2017-10-20T06:57:02.030Z,43.00
2017-10-20T06:59:29.480Z,37.90
2017-10-20T07:01:56.948Z,35.27
2017-10-20T07:04:24.430Z,41.43
2017-10-20T07:06:51.877Z,45.60
2017-10-20T07:09:19.321Z,45.43
2017-10-20T07:11:46.796Z,47.20
2017-10-20T07:14:14.265Z,36.43
2017-10-20T07:16:41.755Z,41.10
2017-10-20T07:32:30.602Z,39.40
2017-10-20T07:34:58.114Z,43.07
2017-10-20T07:37:25.779Z,37.03
2017-10-20T07:39:53.567Z,42.43
2017-10-20T07:42:20.998Z,37.83
2017-10-20T07:44:48.447Z,35.33
2017-10-20T07:47:16.124Z,42.17
2017-10-20T07:49:43.568Z,37.83
2017-10-20T07:52:11.053Z,34.40
2017-10-20T07:54:39.413Z,39.80
2017-10-20T07:57:06.875Z,43.23
2017-10-20T07:59:34.389Z,41.20
2017-10-20T08:02:02.611Z,35.23
2017-10-20T08:04:30.048Z,36.90
2017-10-20T08:06:57.513Z,46.47
2017-10-20T08:09:24.952Z,44.37
2017-10-20T08:11:53.197Z,38.33
2017-10-20T08:14:20.650Z,37.27
2017-10-20T08:16:48.093Z,33.17
2017-10-20T08:19:15.570Z,30.00
2017-10-20T08:21:43.045Z,35.80
2017-10-20T08:24:11.265Z,38.73
2017-10-20T08:26:38.724Z,34.40
2017-10-20T08:29:06.196Z,31.73
2017-10-20T08:31:33.652Z,36.30
2017-10-20T08:34:01.113Z,37.13
2017-10-20T08:36:28.589Z,36.00
2017-10-20T08:38:56.320Z,37.40
2017-10-20T08:41:23.777Z,33.30
2017-10-20T08:43:51.244Z,39.40
2017-10-20T08:46:18.700Z,35.90
2017-10-20T08:48:46.185Z,34.77
2017-10-20T08:51:13.636Z,33.67
2017-10-20T08:53:41.128Z,33.83
2017-10-20T08:56:09.688Z,31.67
2017-10-20T08:58:37.405Z,37.00
2017-10-20T09:01:04.884Z,31.17
2017-10-20T09:03:32.332Z,35.17
2017-10-20T09:05:59.822Z,30.23
2017-10-20T09:08:27.284Z,30.97
2017-10-20T09:10:54.728Z,35.87
2017-10-20T09:13:23.030Z,29.47
2017-10-20T09:15:50.487Z,59.67
2017-10-20T09:18:18.149Z,31.47
2017-10-20T09:20:45.838Z,31.87
2017-10-20T09:23:13.280Z,28.43
2017-10-20T09:25:41.577Z,36.57
2017-10-20T09:28:09.048Z,35.43
2017-10-20T09:30:36.506Z,46.77
2017-10-20T09:33:03.984Z,30.87
2017-10-20T09:35:31.522Z,33.00
2017-10-20T09:37:58.964Z,28.57
2017-10-20T09:40:26.445Z,27.17
2017-10-20T09:42:53.888Z,28.53
2017-10-20T09:45:21.369Z,24.70
2017-10-20T09:47:48.836Z,27.83
2017-10-20T09:50:16.577Z,30.50
2017-10-20T09:52:44.044Z,31.37
2017-10-20T09:55:11.506Z,34.67
2017-10-20T09:57:38.973Z,26.23
2017-10-20T10:00:06.432Z,31.83
2017-10-20T10:02:33.890Z,26.83
2017-10-20T10:05:01.634Z,30.97
2017-10-20T10:07:29.094Z,27.43
2017-10-20T10:09:56.554Z,30.50
2017-10-20T10:12:24.057Z,24.07
2017-10-20T10:14:51.902Z,24.70
2017-10-20T10:17:19.345Z,24.47
2017-10-20T10:19:46.821Z,27.30
2017-10-20T10:22:14.264Z,25.70
2017-10-20T10:24:41.716Z,30.83
2017-10-20T10:27:09.176Z,21.07
2017-10-20T10:29:36.678Z,27.07
2017-10-20T10:32:05.304Z,23.63
2017-10-20T10:34:32.744Z,23.00
2017-10-20T10:37:00.197Z,32.13
2017-10-20T10:39:27.988Z,24.10
2017-10-20T10:41:55.445Z,29.53
2017-10-20T10:44:22.920Z,22.77
2017-10-20T10:46:50.408Z,31.07
2017-10-20T10:49:17.860Z,23.50
2017-10-20T10:51:45.302Z,27.70
2017-10-20T10:54:12.931Z,35.77
2017-10-20T10:56:40.506Z,25.67
2017-10-20T10:59:07.974Z,28.80
2017-10-20T11:01:35.416Z,25.90
2017-10-20T11:04:02.887Z,29.00
2017-10-20T11:06:42.152Z,23.60
2017-10-20T11:09:18.768Z,25.47
2017-10-20T11:11:58.073Z,24.80
2017-10-20T11:14:26.326Z,26.47
2017-10-20T11:16:53.793Z,24.13
2017-10-20T11:19:21.337Z,31.03
2017-10-20T11:21:48.829Z,28.80
2017-10-20T11:24:17.037Z,30.10
2017-10-20T11:26:44.504Z,27.60
2017-10-20T11:29:11.948Z,21.60
2017-10-20T11:31:39.402Z,23.90
2017-10-20T11:34:06.878Z,23.47
2017-10-20T11:36:34.527Z,28.53
2017-10-20T11:39:01.958Z,27.13
2017-10-20T11:41:30.193Z,24.00
2017-10-20T11:43:57.665Z,19.80
2017-10-20T11:46:25.116Z,27.30
2017-10-20T11:48:52.846Z,23.00
2017-10-20T11:51:20.291Z,25.50
2017-10-20T11:53:47.746Z,22.53
2017-10-20T11:56:15.188Z,23.90
2017-10-20T11:58:42.732Z,24.73
2017-10-20T12:01:10.957Z,24.50
2017-10-20T12:03:38.397Z,20.90
2017-10-20T12:06:05.907Z,25.67
2017-10-20T12:08:33.368Z,24.13
2017-10-20T12:11:00.845Z,22.90
2017-10-20T12:13:29.218Z,24.43
2017-10-20T12:15:57.534Z,22.40
2017-10-20T12:18:24.964Z,25.37
2017-10-20T12:20:53.208Z,22.30
2017-10-20T12:23:20.658Z,24.83
2017-10-20T12:25:48.184Z,24.50
2017-10-20T12:28:15.632Z,25.00
2017-10-20T12:30:43.101Z,25.40
2017-10-20T12:33:11.418Z,27.97
2017-10-20T12:35:39.148Z,32.07
2017-10-20T12:38:06.614Z,25.47
2017-10-20T12:40:34.075Z,23.10
2017-10-20T12:43:01.548Z,30.83
2017-10-20T12:45:29.000Z,26.70
2017-10-20T12:47:56.486Z,27.20
2017-10-20T12:50:23.954Z,22.60
2017-10-20T12:52:52.167Z,27.17
2017-10-20T12:55:19.660Z,27.90
2017-10-20T12:57:47.123Z,23.90
2017-10-20T13:00:14.572Z,27.03
2017-10-20T13:02:42.038Z,23.10
2017-10-20T13:05:09.513Z,26.60
2017-10-20T13:07:37.721Z,25.80
2017-10-20T13:10:05.258Z,22.93
2017-10-20T13:12:33.460Z,26.40
2017-10-20T13:15:00.930Z,27.70
2017-10-20T13:17:28.396Z,24.13
2017-10-20T13:19:56.754Z,24.57
2017-10-20T13:22:25.198Z,27.47
2017-10-20T13:24:53.433Z,24.30
2017-10-20T13:27:20.885Z,25.20
2017-10-20T13:29:48.361Z,24.77
2017-10-20T13:32:15.843Z,24.83
2017-10-20T13:34:43.649Z,33.27
2017-10-20T13:37:11.477Z,22.77
2017-10-20T13:39:39.014Z,26.93
2017-10-20T13:42:06.502Z,22.17
2017-10-20T13:44:35.389Z,23.57
2017-10-20T13:47:03.644Z,27.10
2017-10-20T13:49:31.093Z,28.33
2017-10-20T13:51:58.544Z,22.00
2017-10-20T13:54:26.022Z,20.73
2017-10-20T13:56:53.460Z,23.97
2017-10-20T13:59:20.991Z,25.93
2017-10-20T14:01:48.430Z,25.83
2017-10-20T14:04:15.909Z,24.57
2017-10-20T14:06:43.365Z,26.60
2017-10-20T14:09:10.830Z,28.20
2017-10-20T14:11:38.289Z,23.50
2017-10-20T14:14:05.842Z,27.27
2017-10-20T14:16:33.308Z,26.47
2017-10-20T14:19:00.749Z,29.27
2017-10-20T14:21:28.220Z,24.97
2017-10-20T14:23:55.677Z,21.70
2017-10-20T14:26:23.170Z,28.47
2017-10-20T14:28:50.616Z,27.77
2017-10-20T14:31:18.147Z,25.53
2017-10-20T14:33:45.609Z,30.20
2017-10-20T14:36:13.092Z,27.00
2017-10-20T14:38:40.533Z,25.60
2017-10-20T14:41:25.972Z,24.30
2017-10-20T14:43:54.184Z,25.40
2017-10-20T14:46:21.632Z,27.80
2017-10-20T14:48:49.108Z,22.73
2017-10-20T14:51:16.561Z,24.07
2017-10-20T14:53:44.014Z,33.47
2017-10-20T14:56:11.492Z,25.17
2017-10-20T14:58:38.950Z,26.03
2017-10-20T15:01:06.396Z,29.77
2017-10-20T15:03:34.620Z,30.77
2017-10-20T15:06:02.853Z,30.47
2017-10-20T15:08:30.306Z,29.40
2017-10-20T15:10:57.778Z,25.67
2017-10-20T15:13:25.251Z,26.10
2017-10-20T15:15:52.710Z,31.53
2017-10-20T15:18:20.199Z,22.70
2017-10-20T15:20:48.399Z,23.17
2017-10-20T15:23:15.857Z,25.90
2017-10-20T15:25:43.329Z,24.90
2017-10-20T15:28:10.785Z,25.73
2017-10-20T15:30:38.225Z,23.33
2017-10-20T15:33:05.697Z,23.87
2017-10-20T15:35:33.147Z,28.80
2017-10-20T15:38:00.594Z,28.80
2017-10-20T15:40:28.080Z,21.20
2017-10-20T15:42:55.529Z,26.93
2017-10-20T15:45:23.750Z,24.57
2017-10-20T15:47:51.980Z,35.47
2017-10-20T15:50:19.521Z,24.83
2017-10-20T15:52:46.958Z,23.73
2017-10-20T15:55:14.540Z,33.47
2017-10-20T15:57:41.982Z,25.17
2017-10-20T16:00:09.420Z,25.30
2017-10-20T16:02:37.663Z,31.30
2017-10-20T16:05:05.118Z,27.47
2017-10-20T16:07:32.646Z,30.87
2017-10-20T16:10:00.110Z,30.13
2017-10-20T16:12:27.868Z,23.83
2017-10-20T16:14:55.428Z,28.87
2017-10-20T16:17:22.871Z,27.20
2017-10-20T16:19:50.317Z,28.13
2017-10-20T16:22:18.825Z,29.57
2017-10-20T16:24:46.278Z,31.20
2017-10-20T16:27:13.721Z,27.50
2017-10-20T16:29:41.184Z,30.80
2017-10-20T16:32:08.641Z,27.93
2017-10-20T16:34:36.090Z,25.30
2017-10-20T16:37:04.332Z,26.00
2017-10-20T16:39:31.786Z,25.50
2017-10-20T16:41:59.238Z,32.17
2017-10-20T16:44:26.701Z,31.43
2017-10-20T16:46:54.148Z,28.00
2017-10-20T16:49:21.604Z,38.23
2017-10-20T16:51:49.814Z,34.67
2017-10-20T16:54:18.056Z,30.20
2017-10-20T16:56:45.592Z,32.30
2017-10-20T16:59:13.050Z,30.13
2017-10-20T17:01:40.493Z,26.10
2017-10-20T17:04:07.970Z,30.77
2017-10-20T17:06:35.439Z,29.37
2017-10-20T17:09:02.909Z,28.77
2017-10-20T17:11:30.384Z,36.53
2017-10-20T17:13:57.895Z,31.00
2017-10-20T17:16:25.323Z,31.20
2017-10-20T17:18:53.560Z,24.97
2017-10-20T17:21:21.008Z,25.60
2017-10-20T17:23:48.467Z,29.53
2017-10-20T17:26:15.924Z,25.13
2017-10-20T17:28:43.369Z,27.33
2017-10-20T17:31:10.849Z,25.53
2017-10-20T17:33:38.293Z,29.70
2017-10-20T17:36:05.735Z,25.27
2017-10-20T17:38:33.203Z,24.77
2017-10-20T17:41:00.675Z,21.53
2017-10-20T17:43:28.134Z,22.30
2017-10-20T17:45:55.599Z,23.93
2017-10-20T17:48:23.044Z,23.57
2017-10-20T17:50:50.782Z,24.30
2017-10-20T17:53:18.225Z,27.37
2017-10-20T17:55:45.696Z,30.10
2017-10-20T17:58:13.152Z,27.50
2017-10-20T18:00:40.609Z,25.43
2017-10-20T18:03:08.076Z,27.33
2017-10-20T18:05:35.525Z,36.10
2017-10-20T18:08:03.004Z,24.83
2017-10-20T18:10:30.466Z,27.03
2017-10-20T18:12:57.911Z,32.10
2017-10-20T18:15:25.377Z,26.67
2017-10-20T18:17:52.816Z,30.40
2017-10-20T18:20:20.289Z,25.30
2017-10-20T18:22:47.833Z,29.77
2017-10-20T18:25:15.288Z,25.50
2017-10-20T18:27:42.772Z,33.40
2017-10-20T18:30:10.246Z,27.70
2017-10-20T18:32:37.691Z,33.53
2017-10-20T18:35:05.189Z,32.93
2017-10-20T18:37:32.658Z,32.47
2017-10-20T18:40:00.120Z,32.93
2017-10-20T18:42:27.672Z,29.47
2017-10-20T18:44:55.910Z,29.03
2017-10-20T18:47:23.348Z,28.83
2017-10-20T18:49:50.814Z,26.03
2017-10-20T18:52:19.032Z,28.40
2017-10-20T18:54:47.312Z,29.93
2017-10-20T18:57:15.548Z,29.10
2017-10-20T18:59:43.042Z,30.00
2017-10-20T19:02:11.374Z,23.10
2017-10-20T19:04:38.805Z,30.03
2017-10-20T19:07:06.269Z,26.90
2017-10-20T19:09:33.712Z,26.83
2017-10-20T19:12:01.190Z,34.20
2017-10-20T19:14:29.662Z,33.07
2017-10-20T19:16:57.088Z,32.50
2017-10-20T19:19:25.324Z,27.17
2017-10-20T19:21:52.804Z,29.33
2017-10-20T19:24:20.266Z,26.60
2017-10-20T19:26:47.749Z,26.83
2017-10-20T19:29:15.957Z,29.50
2017-10-20T19:31:43.969Z,25.33
2017-10-20T19:34:11.436Z,24.60
2017-10-20T19:36:39.677Z,28.93
2017-10-20T19:39:07.162Z,22.90
2017-10-20T19:41:34.612Z,28.37
2017-10-20T19:44:02.063Z,26.27
2017-10-20T19:46:29.524Z,20.03
2017-10-20T19:48:56.985Z,30.60
2017-10-20T19:51:24.505Z,33.10
2017-10-20T19:53:51.996Z,23.20
2017-10-20T19:56:19.467Z,24.57
2017-10-20T19:58:46.962Z,30.80
2017-10-20T20:01:14.404Z,24.60
2017-10-20T20:03:42.645Z,26.50
2017-10-20T20:06:10.134Z,23.40
2017-10-20T20:08:37.620Z,21.80
2017-10-20T20:11:05.075Z,21.87
2017-10-20T20:13:32.526Z,21.20
2017-10-20T20:15:59.996Z,31.27
2017-10-20T20:18:27.440Z,25.10
2017-10-20T20:20:54.924Z,22.93
2017-10-20T20:23:22.364Z,23.60
2017-10-20T20:25:49.832Z,27.23
2017-10-20T20:28:17.314Z,23.20
2017-10-20T20:30:44.777Z,22.07
2017-10-20T20:33:30.952Z,22.23
2017-10-20T20:35:58.395Z,21.43
2017-10-20T20:38:25.840Z,25.90
2017-10-20T20:40:53.304Z,21.77
2017-10-20T20:43:20.749Z,27.67
2017-10-20T20:45:48.188Z,24.43
2017-10-20T20:48:16.419Z,26.47
2017-10-20T20:50:43.882Z,23.73
2017-10-20T20:53:11.354Z,17.67
2017-10-20T20:55:38.800Z,18.80
2017-10-20T20:58:06.290Z,22.47
2017-10-20T21:00:33.757Z,23.63
2017-10-20T21:03:01.964Z,18.57
2017-10-20T21:05:29.462Z,19.30
2017-10-20T21:07:56.934Z,17.63
2017-10-20T21:10:24.390Z,17.87
2017-10-20T21:12:51.856Z,16.83
2017-10-20T21:15:20.088Z,17.23
2017-10-20T21:17:47.542Z,17.17
2017-10-20T21:20:15.022Z,18.33
2017-10-20T21:22:42.464Z,17.17
2017-10-20T21:25:09.909Z,19.57
2017-10-20T21:27:37.376Z,19.77
2017-10-20T21:30:04.821Z,17.33
2017-10-20T21:32:32.308Z,18.23
2017-10-20T21:35:00.734Z,18.47
2017-10-20T21:37:28.944Z,17.83
2017-10-20T21:39:56.412Z,16.33
2017-10-20T21:42:24.156Z,16.30
2017-10-20T21:44:51.643Z,17.60
2017-10-20T21:47:19.081Z,20.20
2017-10-20T21:49:46.544Z,19.00
2017-10-20T21:52:14.008Z,18.13
2017-10-20T21:54:41.549Z,17.13
2017-10-20T21:57:09.012Z,16.57
2017-10-20T21:59:36.460Z,19.90
2017-10-20T22:02:03.932Z,20.90
2017-10-20T22:04:31.379Z,21.33
2017-10-20T22:06:58.820Z,16.53
2017-10-20T22:09:26.293Z,19.10
2017-10-20T22:11:53.812Z,19.30
2017-10-20T22:14:22.048Z,19.70
2017-10-20T22:16:49.524Z,15.93
2017-10-20T22:19:17.002Z,19.60
2017-10-20T22:21:45.213Z,16.67
2017-10-20T22:24:12.657Z,18.53
2017-10-20T22:26:40.138Z,16.60
2017-10-20T22:29:07.586Z,18.53
2017-10-20T22:31:35.038Z,16.90
2017-10-20T22:34:02.504Z,18.90
2017-10-20T22:36:29.968Z,18.37
2017-10-20T22:38:57.412Z,16.67
2017-10-20T22:41:24.867Z,17.93
2017-10-20T22:43:52.333Z,17.97
2017-10-20T22:46:19.792Z,18.27
2017-10-20T22:48:47.274Z,16.90
2017-10-20T22:51:15.327Z,16.63
2017-10-20T22:53:42.788Z,15.23
2017-10-20T22:56:10.233Z,17.77
2017-10-20T22:58:37.692Z,20.80
2017-10-20T23:01:05.163Z,20.50
2017-10-20T23:03:32.650Z,15.37
2017-10-20T23:06:00.092Z,16.13
2017-10-20T23:08:27.541Z,16.50
2017-10-20T23:10:55.000Z,15.90
2017-10-20T23:13:22.454Z,15.90
2017-10-20T23:15:49.918Z,16.77
2017-10-20T23:18:17.356Z,17.07
2017-10-20T23:20:44.812Z,15.37
2017-10-20T23:23:12.274Z,16.00
2017-10-20T23:25:39.749Z,16.67
2017-10-20T23:28:07.192Z,17.60
2017-10-20T23:30:34.652Z,16.97
2017-10-20T23:33:02.114Z,17.17
2017-10-20T23:35:29.557Z,16.10
2017-10-20T23:37:57.020Z,15.73
2017-10-20T23:40:24.480Z,15.47
2017-10-20T23:42:51.941Z,14.50
2017-10-20T23:45:19.409Z,14.70
2017-10-20T23:47:46.873Z,15.17
2017-10-20T23:50:14.323Z,15.40
2017-10-20T23:52:42.540Z,18.80
2017-10-20T23:55:10.767Z,21.73
2017-10-20T23:57:38.213Z,15.93
